METAR Data
IDs: Format: Raw Decoded Include TAF

Data at: 0140 UTC 01 Mar 2021

KMCW 010053Z AUTO 30013KT 10SM CLR M06/M09 A3006 RMK AO2 SLP189 T10561089